createdAt,value
2023-05-24T00:00:52.482Z,91872.38
2023-05-24T00:03:25.619Z,91875.28
2023-05-24T00:05:58.019Z,91876.50
2023-05-24T00:08:30.369Z,91874.19
2023-05-24T00:11:02.674Z,91869.59
2023-05-24T00:13:34.997Z,91875.59
2023-05-24T00:16:07.282Z,91877.09
2023-05-24T00:18:40.594Z,91878.91
2023-05-24T00:21:13.549Z,91871.22
2023-05-24T00:23:46.815Z,91865.69
2023-05-24T00:26:19.151Z,91867.03
2023-05-24T00:28:58.611Z,91861.50
2023-05-24T00:31:31.015Z,91868.84
2023-05-24T00:34:04.084Z,91862.22
2023-05-24T00:36:37.516Z,91866.22
2023-05-24T00:39:09.852Z,91860.78
2023-05-24T00:41:42.200Z,91858.97
2023-05-24T00:44:15.226Z,91864.34
2023-05-24T00:46:48.037Z,91871.53
2023-05-24T00:49:22.816Z,91864.75
2023-05-24T00:51:55.262Z,91866.84
2023-05-24T00:54:28.303Z,91863.50
2023-05-24T00:57:01.494Z,91861.94
2023-05-24T00:59:34.125Z,91855.84
2023-05-24T01:02:06.602Z,91862.59
2023-05-24T01:04:39.706Z,91860.88
2023-05-24T01:07:20.603Z,91864.47
2023-05-24T01:10:03.489Z,91871.06
2023-05-24T01:12:50.569Z,91867.34
2023-05-24T01:15:28.142Z,91856.94
2023-05-24T01:18:07.016Z,91867.94
2023-05-24T01:20:41.502Z,91870.09
2023-05-24T01:23:33.914Z,91874.69
2023-05-24T01:26:18.978Z,91873.94
2023-05-24T01:28:53.911Z,91882.22
2023-05-24T01:31:26.739Z,91878.47
2023-05-24T01:33:59.084Z,91877.06
2023-05-24T01:36:31.414Z,91873.22
2023-05-24T01:39:05.002Z,91874.47
2023-05-24T01:41:41.126Z,91878.91
2023-05-24T01:44:24.858Z,91874.84
2023-05-24T01:47:04.372Z,91870.03
2023-05-24T01:49:38.486Z,91871.22
2023-05-24T01:52:15.597Z,91859.00
2023-05-24T01:54:52.027Z,91874.22
2023-05-24T01:57:26.524Z,91877.72
2023-05-24T02:00:01.932Z,91864.19
2023-05-24T02:02:45.468Z,91865.94
2023-05-24T02:05:17.945Z,91868.13
2023-05-24T02:07:50.802Z,91869.78
2023-05-24T02:10:23.342Z,91868.66
2023-05-24T02:12:55.769Z,91849.78
2023-05-24T02:15:29.685Z,91865.31
2023-05-24T02:18:03.561Z,91868.03
2023-05-24T02:20:36.433Z,91860.03
2023-05-24T02:23:08.819Z,91854.94
2023-05-24T02:25:42.722Z,91859.09
2023-05-24T02:28:15.327Z,91847.78
2023-05-24T02:30:48.406Z,91851.03
2023-05-24T02:33:20.861Z,91854.56
2023-05-24T02:35:53.195Z,91845.59
2023-05-24T02:38:25.846Z,91852.81
2023-05-24T02:40:58.210Z,91852.72
2023-05-24T02:43:30.548Z,91852.22
2023-05-24T02:46:03.617Z,91851.41
2023-05-24T02:48:36.350Z,91851.31
2023-05-24T02:51:08.761Z,91852.06
2023-05-24T02:53:42.809Z,91850.25
2023-05-24T02:56:16.817Z,91846.97
2023-05-24T02:58:49.286Z,91852.69
2023-05-24T03:01:22.753Z,91851.31
2023-05-24T03:03:56.982Z,91849.00
2023-05-24T03:06:29.386Z,91859.31
2023-05-24T03:09:02.017Z,91860.97
2023-05-24T03:11:34.893Z,91865.00
2023-05-24T03:14:09.374Z,91863.91
2023-05-24T03:16:42.701Z,91866.78
2023-05-24T03:19:16.641Z,91863.13
2023-05-24T03:21:49.010Z,91861.88
2023-05-24T03:24:21.372Z,91873.06
2023-05-24T03:26:54.160Z,91865.16
2023-05-24T03:29:26.937Z,91875.25
2023-05-24T03:32:00.979Z,91872.66
2023-05-24T03:34:33.345Z,91873.81
2023-05-24T03:37:06.117Z,91882.78
2023-05-24T03:39:38.474Z,91883.47
2023-05-24T03:42:33.804Z,91879.50
2023-05-24T03:45:07.533Z,91883.16
2023-05-24T03:47:40.684Z,91886.91
2023-05-24T03:50:13.668Z,91886.72
2023-05-24T03:52:47.104Z,91883.66
2023-05-24T03:55:19.605Z,91886.72
2023-05-24T03:57:54.902Z,91886.44
2023-05-24T04:00:27.257Z,91886.34
2023-05-24T04:03:01.010Z,91888.84
2023-05-24T04:05:35.005Z,91897.91
2023-05-24T04:08:07.664Z,91892.78
2023-05-24T04:10:43.303Z,91895.84
2023-05-24T04:13:17.209Z,91893.63
2023-05-24T04:15:49.531Z,91892.00
2023-05-24T04:18:22.607Z,91895.38
2023-05-24T04:20:55.344Z,91898.91
2023-05-24T04:23:27.624Z,91890.81
2023-05-24T04:26:00.005Z,91890.25
2023-05-24T04:28:32.987Z,91895.31
2023-05-24T04:31:06.080Z,91891.53
2023-05-24T04:33:39.069Z,91888.25
2023-05-24T04:36:12.698Z,91894.41
2023-05-24T04:38:45.635Z,91894.88
2023-05-24T04:41:17.924Z,91902.47
2023-05-24T04:43:50.210Z,91905.16
2023-05-24T04:46:22.651Z,91905.84
2023-05-24T04:48:58.470Z,91914.50
2023-05-24T04:51:31.001Z,91910.09
2023-05-24T04:54:07.961Z,91912.75
2023-05-24T04:56:40.515Z,91912.53
2023-05-24T04:59:12.785Z,91912.13
2023-05-24T05:01:45.338Z,91919.38
2023-05-24T05:04:18.880Z,91918.06
2023-05-24T05:06:51.813Z,91913.94
2023-05-24T05:09:24.173Z,91913.97
2023-05-24T05:11:56.477Z,91914.19
2023-05-24T05:14:28.983Z,91899.75
2023-05-24T05:17:01.328Z,91915.31
2023-05-24T05:19:35.074Z,91917.19
2023-05-24T05:22:07.420Z,91912.47
2023-05-24T05:24:39.765Z,91917.06
2023-05-24T05:27:12.093Z,91917.72
2023-05-24T05:29:44.454Z,91917.50
2023-05-24T05:32:16.828Z,91923.03
2023-05-24T05:34:49.830Z,91922.25
2023-05-24T05:37:22.208Z,91922.16
2023-05-24T05:39:54.530Z,91913.28
2023-05-24T05:42:26.899Z,91917.50
2023-05-24T05:44:59.202Z,91921.06
2023-05-24T05:47:31.563Z,91922.31
2023-05-24T05:50:05.349Z,91922.13
2023-05-24T05:52:38.105Z,91919.81
2023-05-24T05:55:11.520Z,91926.84
2023-05-24T05:57:43.870Z,91922.97
2023-05-24T06:00:17.032Z,91931.16
2023-05-24T06:02:49.567Z,91935.88
2023-05-24T06:05:22.639Z,91930.06
2023-05-24T06:07:55.017Z,91943.00
2023-05-24T06:10:27.405Z,91933.91
2023-05-24T06:13:01.623Z,91935.72
2023-05-24T06:15:33.905Z,91945.63
2023-05-24T06:18:07.199Z,91942.44
2023-05-24T06:20:40.367Z,91942.00
2023-05-24T06:23:12.870Z,91945.34
2023-05-24T06:25:45.223Z,91945.88
2023-05-24T06:28:17.562Z,91943.81
2023-05-24T06:30:50.013Z,91941.97
2023-05-24T06:33:22.425Z,91940.06
2023-05-24T06:35:55.584Z,91943.97
2023-05-24T06:38:27.978Z,91944.13
2023-05-24T06:41:00.395Z,91939.59
2023-05-24T06:43:33.133Z,91937.34
2023-05-24T06:46:05.564Z,91929.22
2023-05-24T06:48:37.969Z,91936.31
2023-05-24T06:51:11.070Z,91932.44
2023-05-24T06:53:43.914Z,91933.94
2023-05-24T06:56:16.351Z,91938.63
2023-05-24T06:58:48.708Z,91937.81
2023-05-24T07:01:21.743Z,91937.28
2023-05-24T07:03:54.222Z,91941.41
2023-05-24T07:06:27.212Z,91942.66
2023-05-24T07:09:01.154Z,91943.16
2023-05-24T07:11:33.517Z,91946.34
2023-05-24T07:14:05.962Z,91940.13
2023-05-24T07:16:38.364Z,91940.28
2023-05-24T07:19:10.723Z,91939.91
2023-05-24T07:21:43.699Z,91937.88
2023-05-24T07:24:16.458Z,91940.94
2023-05-24T07:26:49.417Z,91944.06
2023-05-24T07:29:21.760Z,91942.19
2023-05-24T07:31:55.708Z,91947.19
2023-05-24T07:34:29.447Z,91945.63
2023-05-24T07:37:03.022Z,91947.34
2023-05-24T07:39:35.393Z,91951.25
2023-05-24T07:42:07.835Z,91955.66
2023-05-24T07:44:40.171Z,91953.09
2023-05-24T07:47:12.481Z,91948.38
2023-05-24T07:49:44.957Z,91945.59
2023-05-24T07:52:17.914Z,91950.94
2023-05-24T07:54:50.319Z,91952.97
2023-05-24T07:57:23.098Z,91944.47
2023-05-24T07:59:55.450Z,91947.72
2023-05-24T08:02:28.305Z,91940.31
2023-05-24T08:05:01.222Z,91948.09
2023-05-24T08:07:34.541Z,91950.44
2023-05-24T08:10:09.685Z,91945.72
2023-05-24T08:12:42.207Z,91937.50
2023-05-24T08:15:14.598Z,91946.22
2023-05-24T08:17:47.744Z,91942.84
2023-05-24T08:20:20.277Z,91938.41
2023-05-24T08:22:53.331Z,91939.50
2023-05-24T08:25:26.548Z,91933.91
2023-05-24T08:27:58.910Z,91941.88
2023-05-24T08:30:31.598Z,91935.06
2023-05-24T08:33:04.146Z,91939.22
2023-05-24T08:35:36.477Z,91939.69
2023-05-24T08:38:09.537Z,91942.00
2023-05-24T08:40:42.743Z,91942.84
2023-05-24T08:43:15.360Z,91940.03
2023-05-24T08:45:49.471Z,91946.16
2023-05-24T08:48:23.881Z,91939.41
2023-05-24T08:50:57.909Z,91944.22
2023-05-24T08:53:34.349Z,91948.38
2023-05-24T08:56:08.251Z,91939.66
2023-05-24T08:58:41.001Z,91948.69
2023-05-24T09:01:13.896Z,91943.75
2023-05-24T09:03:47.398Z,91940.06
2023-05-24T09:06:19.817Z,91945.47
2023-05-24T09:08:53.402Z,91942.81
2023-05-24T09:11:26.898Z,91944.28
2023-05-24T09:14:02.410Z,91938.22
2023-05-24T09:16:35.327Z,91936.03
2023-05-24T09:19:07.664Z,91928.56
2023-05-24T09:21:40.360Z,91933.13
2023-05-24T09:24:13.726Z,91935.06
2023-05-24T09:26:48.999Z,91933.97
2023-05-24T09:29:23.763Z,91932.06
2023-05-24T09:31:56.753Z,91938.97
2023-05-24T09:34:29.138Z,91934.06
2023-05-24T09:37:02.162Z,91937.53
2023-05-24T09:39:35.335Z,91938.25
2023-05-24T09:42:07.827Z,91934.50
2023-05-24T09:44:40.152Z,91933.34
2023-05-24T09:47:13.098Z,91932.19
2023-05-24T09:49:48.532Z,91932.19
2023-05-24T09:52:22.564Z,91936.75
2023-05-24T09:54:55.725Z,91934.09
2023-05-24T09:57:28.091Z,91923.06
2023-05-24T10:00:13.986Z,91931.03
2023-05-24T10:02:53.505Z,91935.59
2023-05-24T10:05:26.990Z,91927.25
2023-05-24T10:08:00.362Z,91929.16
2023-05-24T10:10:33.718Z,91920.38
2023-05-24T10:13:06.895Z,91927.22
2023-05-24T10:15:39.244Z,91922.31
2023-05-24T10:18:13.853Z,91927.56
2023-05-24T10:20:47.350Z,91930.63
2023-05-24T10:23:24.121Z,91924.50
2023-05-24T10:26:03.535Z,91914.59
2023-05-24T10:28:40.440Z,91921.81
2023-05-24T10:31:16.195Z,91910.59
2023-05-24T10:33:51.213Z,91911.41
2023-05-24T10:36:25.446Z,91917.06
2023-05-24T10:38:58.049Z,91915.44
2023-05-24T10:41:39.431Z,91908.19
2023-05-24T10:44:12.741Z,91904.50
2023-05-24T10:47:08.083Z,91906.22
2023-05-24T10:49:49.955Z,91896.38
2023-05-24T10:52:33.775Z,91894.88
2023-05-24T10:55:08.893Z,91894.00
2023-05-24T10:57:41.951Z,91884.63
2023-05-24T11:03:08.767Z,91895.44
2023-05-24T11:05:52.975Z,91898.19
2023-05-24T11:08:30.344Z,91885.16
2023-05-24T11:11:22.381Z,91886.91
2023-05-24T11:14:01.038Z,91889.06
2023-05-24T11:16:34.577Z,91889.03
2023-05-24T11:19:16.621Z,91881.16
2023-05-24T11:21:50.840Z,91876.44
2023-05-24T11:24:24.683Z,91874.53
2023-05-24T11:26:57.806Z,91868.59
2023-05-24T11:29:30.869Z,91883.84
2023-05-24T11:32:04.120Z,91886.44
2023-05-24T11:34:39.374Z,91878.91
2023-05-24T11:37:13.936Z,91869.63
2023-05-24T11:39:51.888Z,91870.47
2023-05-24T11:42:24.276Z,91878.47
2023-05-24T11:44:57.332Z,91876.38
2023-05-24T11:47:29.737Z,91862.53
2023-05-24T11:50:02.972Z,91863.72
2023-05-24T11:52:39.411Z,91864.44
2023-05-24T11:55:14.965Z,91858.03
2023-05-24T11:57:57.599Z,91861.47
2023-05-24T12:00:31.148Z,91858.81
2023-05-24T12:03:06.865Z,91864.19
2023-05-24T12:05:39.275Z,91852.44
2023-05-24T12:08:13.473Z,91854.16
2023-05-24T12:10:48.224Z,91854.69
2023-05-24T12:13:22.924Z,91857.72
2023-05-24T12:15:57.483Z,91852.94
2023-05-24T12:18:30.294Z,91854.13
2023-05-24T12:21:08.550Z,91847.31
2023-05-24T12:23:40.900Z,91855.84
2023-05-24T12:26:15.536Z,91846.25
2023-05-24T12:28:53.793Z,91839.50
2023-05-24T12:31:27.257Z,91834.47
2023-05-24T12:33:59.665Z,91834.00
2023-05-24T12:36:32.736Z,91834.91
2023-05-24T12:39:21.597Z,91842.34
2023-05-24T12:41:55.348Z,91832.19
2023-05-24T12:44:28.812Z,91832.88
2023-05-24T12:47:03.681Z,91823.88
2023-05-24T12:49:36.421Z,91829.94
2023-05-24T12:52:08.914Z,91828.06
2023-05-24T12:54:41.314Z,91831.50
2023-05-24T12:57:13.815Z,91827.56
2023-05-24T12:59:46.720Z,91817.94
2023-05-24T13:02:19.804Z,91821.84
2023-05-24T13:04:59.805Z,91826.50
2023-05-24T13:07:32.199Z,91828.63
2023-05-24T13:10:05.495Z,91824.56
2023-05-24T13:12:38.528Z,91823.25
2023-05-24T13:15:11.914Z,91819.84
2023-05-24T13:17:45.218Z,91815.59
2023-05-24T13:20:21.328Z,91818.66
2023-05-24T13:22:53.682Z,91812.72
2023-05-24T13:25:26.446Z,91810.06
2023-05-24T13:27:59.293Z,91805.75
2023-05-24T13:30:31.677Z,91801.19
2023-05-24T13:33:05.199Z,91801.19
2023-05-24T13:35:37.688Z,91807.91
2023-05-24T13:38:10.333Z,91798.31
2023-05-24T13:40:42.976Z,91804.75
2023-05-24T13:43:15.665Z,91796.91
2023-05-24T13:45:48.049Z,91797.72
2023-05-24T13:48:21.089Z,91780.63
2023-05-24T13:50:53.493Z,91800.41
2023-05-24T13:53:27.647Z,91805.41
2023-05-24T13:56:00.443Z,91813.88
2023-05-24T13:58:32.922Z,91809.78
2023-05-24T14:01:05.431Z,91819.41
2023-05-24T14:03:40.275Z,91828.28
2023-05-24T14:06:12.669Z,91825.63
2023-05-24T14:08:45.272Z,91839.78
2023-05-24T14:11:18.871Z,91839.78
2023-05-24T14:14:57.174Z,91830.28
2023-05-24T14:16:50.984Z,91845.47
2023-05-24T14:19:23.994Z,91851.19
2023-05-24T14:21:56.469Z,91850.41
2023-05-24T14:24:28.791Z,91855.31
2023-05-24T14:27:01.596Z,91862.38
2023-05-24T14:29:33.940Z,91848.28
2023-05-24T14:32:06.445Z,91853.91
2023-05-24T14:34:39.692Z,91847.88
2023-05-24T14:37:12.034Z,91852.47
2023-05-24T14:39:44.383Z,91847.97
2023-05-24T14:42:16.779Z,91836.66
2023-05-24T14:44:49.102Z,91839.44
2023-05-24T14:47:21.419Z,91831.13
2023-05-24T14:49:54.434Z,91828.91
2023-05-24T14:52:27.022Z,91824.31
2023-05-24T14:54:59.342Z,91827.31
2023-05-24T14:57:31.704Z,91828.56
2023-05-24T15:00:05.056Z,91826.28
2023-05-24T15:02:37.748Z,91820.63
2023-05-24T15:05:10.851Z,91820.94
2023-05-24T15:07:43.187Z,91822.88
2023-05-24T15:10:15.516Z,91819.91
2023-05-24T15:12:48.211Z,91819.91
2023-05-24T15:15:21.842Z,91815.00
2023-05-24T15:17:54.291Z,91810.13
2023-05-24T15:20:27.463Z,91814.69
2023-05-24T15:22:59.973Z,91815.81
2023-05-24T15:25:32.792Z,91817.75
2023-05-24T15:28:05.147Z,91823.44
2023-05-24T15:30:37.451Z,91831.78
2023-05-24T15:33:10.062Z,91833.66
2023-05-24T15:35:43.312Z,91828.31
2023-05-24T15:38:16.950Z,91835.16
2023-05-24T15:40:49.333Z,91839.31
2023-05-24T15:43:21.706Z,91827.84
2023-05-24T15:46:14.249Z,91837.72
2023-05-24T15:48:46.662Z,91833.25
2023-05-24T15:51:57.521Z,91839.31
2023-05-24T15:54:12.158Z,91844.25
2023-05-24T15:56:44.516Z,91840.81
2023-05-24T15:59:16.833Z,91849.91
2023-05-24T16:01:49.182Z,91849.47
2023-05-24T16:07:35.991Z,91843.78
2023-05-24T16:10:08.509Z,91843.34
2023-05-24T16:12:41.026Z,91838.81
2023-05-24T16:15:15.818Z,91838.81
2023-05-24T16:17:48.183Z,91847.53
2023-05-24T16:20:32.538Z,91854.75
2023-05-24T16:23:05.606Z,91844.50
2023-05-24T16:25:37.925Z,91846.34
2023-05-24T16:28:10.276Z,91848.28
2023-05-24T16:30:42.782Z,91855.47
2023-05-24T16:33:15.491Z,91850.47
2023-05-24T16:35:54.347Z,91847.03
2023-05-24T16:38:27.373Z,91854.59
2023-05-24T16:40:59.667Z,91856.44
2023-05-24T16:43:32.156Z,91847.66
2023-05-24T16:46:04.718Z,91851.81
2023-05-24T16:48:37.083Z,91854.53
2023-05-24T16:51:09.689Z,91847.78
2023-05-24T16:53:42.702Z,91851.59
2023-05-24T16:56:15.194Z,91857.22
2023-05-24T16:58:47.522Z,91852.50
2023-05-24T17:01:19.961Z,91854.13
2023-05-24T17:03:52.490Z,91857.16
2023-05-24T17:06:28.026Z,91857.88
2023-05-24T17:09:01.468Z,91857.91
2023-05-24T17:11:33.804Z,91865.53
2023-05-24T17:14:06.444Z,91867.78
2023-05-24T17:16:38.862Z,91868.13
2023-05-24T17:19:13.221Z,91866.22
2023-05-24T17:21:45.560Z,91866.94
2023-05-24T17:24:24.490Z,91864.28
2023-05-24T17:26:56.845Z,91871.03
2023-05-24T17:29:29.551Z,91866.44
2023-05-24T17:32:02.089Z,91878.38
2023-05-24T17:34:34.540Z,91873.59
2023-05-24T17:37:06.896Z,91875.72
2023-05-24T17:39:39.885Z,91883.88
2023-05-24T17:42:12.207Z,91886.50
2023-05-24T17:44:44.556Z,91883.53
2023-05-24T17:47:16.911Z,91884.66
2023-05-24T17:49:49.265Z,91885.91
2023-05-24T17:52:21.617Z,91898.44
2023-05-24T17:54:55.975Z,91898.34
2023-05-24T17:57:28.376Z,91910.34
2023-05-24T18:00:01.327Z,91906.06
2023-05-24T18:02:33.714Z,91912.41
2023-05-24T18:05:06.984Z,91908.44
2023-05-24T18:07:39.395Z,91916.66
2023-05-24T18:10:12.557Z,91911.69
2023-05-24T18:12:44.885Z,91914.75
2023-05-24T18:15:17.268Z,91921.63
2023-05-24T18:17:49.859Z,91924.22
2023-05-24T18:20:22.347Z,91918.09
2023-05-24T18:22:54.694Z,91927.75
2023-05-24T18:25:27.705Z,91929.88
2023-05-24T18:28:00.185Z,91939.03
2023-05-24T18:30:32.826Z,91938.63
2023-05-24T18:33:08.213Z,91952.31
2023-05-24T18:35:41.001Z,91946.75
2023-05-24T18:38:13.570Z,91958.38
2023-05-24T18:40:51.553Z,91958.72
2023-05-24T18:43:23.857Z,91965.59
2023-05-24T18:45:56.228Z,91961.91
2023-05-24T18:48:28.622Z,91966.78
2023-05-24T18:51:01.648Z,91967.69
2023-05-24T18:53:34.072Z,91969.69
2023-05-24T18:56:07.075Z,91973.31
2023-05-24T18:58:40.676Z,91972.97
2023-05-24T19:01:13.120Z,91983.19
2023-05-24T19:03:45.468Z,91979.00
2023-05-24T19:06:17.905Z,91980.97
2023-05-24T19:08:50.464Z,91981.75
2023-05-24T19:11:23.464Z,91988.19
2023-05-24T19:13:55.826Z,91982.56
2023-05-24T19:16:28.241Z,91987.91
2023-05-24T19:19:01.066Z,91988.03
2023-05-24T19:21:33.461Z,91989.69
2023-05-24T19:24:06.484Z,91994.38
2023-05-24T19:26:39.482Z,91997.59
2023-05-24T19:29:11.813Z,91996.47
2023-05-24T19:31:50.020Z,91988.94
2023-05-24T19:34:22.425Z,92001.19
2023-05-24T19:36:55.299Z,91998.13
2023-05-24T19:39:27.602Z,91995.91
2023-05-24T19:42:01.072Z,91998.91
2023-05-24T19:44:33.603Z,91997.00
2023-05-24T19:47:06.402Z,91993.97
2023-05-24T19:49:38.736Z,91999.59
2023-05-24T19:52:11.164Z,91996.53
2023-05-24T19:54:43.534Z,91988.63
2023-05-24T19:57:16.584Z,91993.13
2023-05-24T19:59:48.916Z,91994.22
2023-05-24T20:02:21.232Z,92001.75
2023-05-24T20:04:53.560Z,91991.13
2023-05-24T20:07:25.919Z,91989.94
2023-05-24T20:09:58.523Z,91991.66
2023-05-24T20:12:33.800Z,91996.09
2023-05-24T20:15:07.809Z,91995.25
2023-05-24T20:17:40.673Z,91997.47
2023-05-24T20:20:13.100Z,91998.44
2023-05-24T20:22:45.539Z,91998.72
2023-05-24T20:25:19.130Z,91999.69
2023-05-24T20:27:52.202Z,91991.28
2023-05-24T20:30:24.939Z,91992.34
2023-05-24T20:32:57.223Z,91997.88
2023-05-24T20:35:30.424Z,91993.19
2023-05-24T20:38:02.778Z,91994.56
2023-05-24T20:40:35.094Z,92002.06
2023-05-24T20:43:08.185Z,91995.19
2023-05-24T20:45:41.016Z,92001.22
2023-05-24T20:48:13.659Z,92003.44
2023-05-24T20:50:46.005Z,92006.41
2023-05-24T20:53:18.420Z,92001.06
2023-05-24T20:55:50.802Z,91998.34
2023-05-24T20:58:23.797Z,91997.56
2023-05-24T21:00:56.256Z,92009.56
2023-05-24T21:03:29.317Z,92017.28
2023-05-24T21:06:01.969Z,92019.31
2023-05-24T21:08:34.330Z,92013.47
2023-05-24T21:11:06.747Z,92021.88
2023-05-24T21:13:40.481Z,92020.66
2023-05-24T21:16:12.864Z,92021.78
2023-05-24T21:18:45.229Z,92020.94
2023-05-24T21:21:17.670Z,92017.31
2023-05-24T21:23:49.987Z,92021.34
2023-05-24T21:26:22.370Z,92025.50
2023-05-24T21:28:55.402Z,92021.03
2023-05-24T21:31:29.905Z,92021.06
2023-05-24T21:34:02.505Z,92015.34
2023-05-24T21:36:35.697Z,92016.13
2023-05-24T21:39:08.080Z,92009.56
2023-05-24T21:41:40.765Z,92002.09
2023-05-24T21:44:13.912Z,92010.66
2023-05-24T21:46:46.289Z,92010.88
2023-05-24T21:49:19.388Z,92013.53
2023-05-24T21:51:51.814Z,92010.25
2023-05-24T21:54:24.215Z,92016.28
2023-05-24T21:56:56.633Z,92008.72
2023-05-24T21:59:29.595Z,92010.91
2023-05-24T22:02:01.936Z,92010.78
2023-05-24T22:04:34.290Z,92014.09
2023-05-24T22:07:06.680Z,92016.84
2023-05-24T22:09:39.266Z,92016.84
2023-05-24T22:12:11.608Z,92015.22
2023-05-24T22:14:44.689Z,92020.78
2023-05-24T22:17:17.062Z,92014.22
2023-05-24T22:19:49.404Z,92021.13
2023-05-24T22:22:22.142Z,92024.19
2023-05-24T22:24:54.565Z,92021.22
2023-05-24T22:27:27.046Z,92025.59
2023-05-24T22:30:01.249Z,92023.66
2023-05-24T22:32:33.999Z,92029.44
2023-05-24T22:35:07.100Z,92032.94
2023-05-24T22:37:39.455Z,92044.69
2023-05-24T22:40:12.823Z,92040.81
2023-05-24T22:42:45.168Z,92045.72
2023-05-24T22:45:18.447Z,92047.03
2023-05-24T22:47:50.820Z,92049.31
2023-05-24T22:50:23.182Z,92045.81
2023-05-24T22:52:55.955Z,92041.41
2023-05-24T22:55:28.247Z,92044.56
2023-05-24T22:58:01.123Z,92039.97
2023-05-24T23:00:34.133Z,92042.47
2023-05-24T23:03:07.069Z,92043.91
2023-05-24T23:05:40.418Z,92038.97
2023-05-24T23:08:12.858Z,92031.66
2023-05-24T23:10:46.164Z,92033.53
2023-05-24T23:13:18.552Z,92036.47
2023-05-24T23:15:51.537Z,92032.88
2023-05-24T23:18:25.651Z,92024.50
2023-05-24T23:20:59.821Z,92026.09
2023-05-24T23:23:32.156Z,92027.06
2023-05-24T23:26:04.508Z,92021.56
2023-05-24T23:28:36.873Z,92024.84
2023-05-24T23:31:10.228Z,92026.47
2023-05-24T23:33:42.571Z,92014.72
2023-05-24T23:36:15.022Z,92018.13
2023-05-24T23:38:47.367Z,92017.22
2023-05-24T23:41:19.795Z,92021.06
2023-05-24T23:43:52.119Z,92017.78
2023-05-24T23:46:25.128Z,92021.97
2023-05-24T23:48:57.523Z,92024.25
2023-05-24T23:51:32.534Z,92021.75
2023-05-24T23:54:05.076Z,92028.09
2023-05-24T23:56:38.467Z,92024.56
2023-05-24T23:59:10.956Z,92023.06
